sensor_id;sensor_type;location;lat;lon;timestamp;temperature;humidity
20946;DHT22;10632;51.276;7.116;2022-12-29T00:01:01;8.40;99.90
20946;DHT22;10632;51.276;7.116;2022-12-29T00:03:27;8.40;99.90
20946;DHT22;10632;51.276;7.116;2022-12-29T00:05:57;8.40;99.90
20946;DHT22;10632;51.276;7.116;2022-12-29T00:08:24;8.40;99.90
20946;DHT22;10632;51.276;7.116;2022-12-29T00:11:06;8.50;99.90
20946;DHT22;10632;51.276;7.116;2022-12-29T00:13:34;8.50;99.90
20946;DHT22;10632;51.276;7.116;2022-12-29T00:16:19;8.50;99.90
20946;DHT22;10632;51.276;7.116;2022-12-29T00:18:54;8.50;99.90
20946;DHT22;10632;51.276;7.116;2022-12-29T00:21:23;8.50;99.90
20946;DHT22;10632;51.276;7.116;2022-12-29T00:24:12;8.50;99.90
20946;DHT22;10632;51.276;7.116;2022-12-29T00:27:09;8.60;99.90
20946;DHT22;10632;51.276;7.116;2022-12-29T00:30:00;8.60;99.90
20946;DHT22;10632;51.276;7.116;2022-12-29T00:32:44;8.60;99.90
20946;DHT22;10632;51.276;7.116;2022-12-29T00:35:31;8.60;99.90
20946;DHT22;10632;51.276;7.116;2022-12-29T00:38:03;8.70;99.90
20946;DHT22;10632;51.276;7.116;2022-12-29T00:40:47;8.70;99.90
20946;DHT22;10632;51.276;7.116;2022-12-29T00:43:33;8.70;99.90
20946;DHT22;10632;51.276;7.116;2022-12-29T00:46:18;8.70;99.90
20946;DHT22;10632;51.276;7.116;2022-12-29T00:48:44;8.70;99.90
20946;DHT22;10632;51.276;7.116;2022-12-29T00:51:29;8.70;99.90
20946;DHT22;10632;51.276;7.116;2022-12-29T00:53:56;8.80;99.90
20946;DHT22;10632;51.276;7.116;2022-12-29T00:56:23;8.80;99.90
20946;DHT22;10632;51.276;7.116;2022-12-29T00:58:51;8.80;99.90
20946;DHT22;10632;51.276;7.116;2022-12-29T01:01:18;8.80;99.90
20946;DHT22;10632;51.276;7.116;2022-12-29T01:03:44;8.80;99.90
20946;DHT22;10632;51.276;7.116;2022-12-29T01:06:14;8.80;99.90
20946;DHT22;10632;51.276;7.116;2022-12-29T01:08:41;8.80;99.90
20946;DHT22;10632;51.276;7.116;2022-12-29T01:11:10;8.80;99.90
20946;DHT22;10632;51.276;7.116;2022-12-29T01:13:36;8.90;99.90
20946;DHT22;10632;51.276;7.116;2022-12-29T01:16:07;8.90;99.90
20946;DHT22;10632;51.276;7.116;2022-12-29T01:18:34;8.90;99.90
20946;DHT22;10632;51.276;7.116;2022-12-29T01:21:05;8.90;99.90
20946;DHT22;10632;51.276;7.116;2022-12-29T01:23:32;8.90;99.90
20946;DHT22;10632;51.276;7.116;2022-12-29T01:26:08;9.00;99.90
20946;DHT22;10632;51.276;7.116;2022-12-29T01:28:35;8.90;99.90
20946;DHT22;10632;51.276;7.116;2022-12-29T01:31:08;9.00;99.90
20946;DHT22;10632;51.276;7.116;2022-12-29T01:33:35;9.00;99.90
20946;DHT22;10632;51.276;7.116;2022-12-29T01:36:03;9.00;99.90
20946;DHT22;10632;51.276;7.116;2022-12-29T01:38:36;9.00;99.90
20946;DHT22;10632;51.276;7.116;2022-12-29T01:41:08;9.10;99.90
20946;DHT22;10632;51.276;7.116;2022-12-29T01:43:42;9.10;99.90
20946;DHT22;10632;51.276;7.116;2022-12-29T01:46:22;9.10;99.90
20946;DHT22;10632;51.276;7.116;2022-12-29T01:48:53;9.10;99.90
20946;DHT22;10632;51.276;7.116;2022-12-29T01:51:23;9.10;99.90
20946;DHT22;10632;51.276;7.116;2022-12-29T01:53:51;9.10;99.90
20946;DHT22;10632;51.276;7.116;2022-12-29T01:56:20;9.10;99.90
20946;DHT22;10632;51.276;7.116;2022-12-29T01:58:55;9.20;99.90
20946;DHT22;10632;51.276;7.116;2022-12-29T02:01:24;9.20;99.90
20946;DHT22;10632;51.276;7.116;2022-12-29T02:03:51;9.20;99.90
20946;DHT22;10632;51.276;7.116;2022-12-29T02:06:26;9.20;99.90
20946;DHT22;10632;51.276;7.116;2022-12-29T02:08:56;9.20;99.90
20946;DHT22;10632;51.276;7.116;2022-12-29T02:11:25;9.20;99.90
20946;DHT22;10632;51.276;7.116;2022-12-29T02:13:53;9.20;99.90
20946;DHT22;10632;51.276;7.116;2022-12-29T02:16:35;9.30;99.90
20946;DHT22;10632;51.276;7.116;2022-12-29T02:19:40;9.30;99.90
20946;DHT22;10632;51.276;7.116;2022-12-29T02:22:19;9.30;99.90
20946;DHT22;10632;51.276;7.116;2022-12-29T02:25:37;9.30;99.90
20946;DHT22;10632;51.276;7.116;2022-12-29T02:31:20;9.30;99.90
20946;DHT22;10632;51.276;7.116;2022-12-29T02:34:05;9.30;99.90
20946;DHT22;10632;51.276;7.116;2022-12-29T02:36:43;9.30;99.90
20946;DHT22;10632;51.276;7.116;2022-12-29T02:39:18;9.40;99.90
20946;DHT22;10632;51.276;7.116;2022-12-29T02:41:56;9.40;99.90
20946;DHT22;10632;51.276;7.116;2022-12-29T02:44:34;9.40;99.90
20946;DHT22;10632;51.276;7.116;2022-12-29T02:47:11;9.40;99.90
20946;DHT22;10632;51.276;7.116;2022-12-29T02:49:48;9.40;99.90
20946;DHT22;10632;51.276;7.116;2022-12-29T02:52:22;9.50;99.90
20946;DHT22;10632;51.276;7.116;2022-12-29T02:54:54;9.50;99.90
20946;DHT22;10632;51.276;7.116;2022-12-29T02:57:30;9.50;99.90
20946;DHT22;10632;51.276;7.116;2022-12-29T03:00:02;9.60;99.90
20946;DHT22;10632;51.276;7.116;2022-12-29T03:06:00;9.60;99.90
20946;DHT22;10632;51.276;7.116;2022-12-29T03:08:37;9.70;99.90
20946;DHT22;10632;51.276;7.116;2022-12-29T03:11:10;9.70;99.90
20946;DHT22;10632;51.276;7.116;2022-12-29T03:14:06;9.80;99.90
20946;DHT22;10632;51.276;7.116;2022-12-29T03:16:55;9.80;99.90
20946;DHT22;10632;51.276;7.116;2022-12-29T03:19:30;9.80;99.90
20946;DHT22;10632;51.276;7.116;2022-12-29T03:22:00;9.80;99.90
20946;DHT22;10632;51.276;7.116;2022-12-29T03:24:48;9.80;99.90
20946;DHT22;10632;51.276;7.116;2022-12-29T03:27:19;9.80;99.90
20946;DHT22;10632;51.276;7.116;2022-12-29T03:29:51;9.80;99.90
20946;DHT22;10632;51.276;7.116;2022-12-29T03:32:21;9.80;99.90
20946;DHT22;10632;51.276;7.116;2022-12-29T03:34:51;9.70;99.90
20946;DHT22;10632;51.276;7.116;2022-12-29T03:37:22;9.70;99.90
20946;DHT22;10632;51.276;7.116;2022-12-29T03:39:50;9.60;99.90
20946;DHT22;10632;51.276;7.116;2022-12-29T03:42:20;9.60;99.90
20946;DHT22;10632;51.276;7.116;2022-12-29T03:44:48;9.50;99.90
20946;DHT22;10632;51.276;7.116;2022-12-29T03:47:15;9.50;99.90
20946;DHT22;10632;51.276;7.116;2022-12-29T03:49:42;9.50;99.90
20946;DHT22;10632;51.276;7.116;2022-12-29T03:52:16;9.40;99.90
20946;DHT22;10632;51.276;7.116;2022-12-29T03:54:43;9.40;99.90
20946;DHT22;10632;51.276;7.116;2022-12-29T03:57:10;9.30;99.90
20946;DHT22;10632;51.276;7.116;2022-12-29T03:59:38;9.40;99.90
20946;DHT22;10632;51.276;7.116;2022-12-29T04:02:05;9.30;99.90
20946;DHT22;10632;51.276;7.116;2022-12-29T04:04:32;9.40;99.90
20946;DHT22;10632;51.276;7.116;2022-12-29T04:06:59;9.40;99.90
20946;DHT22;10632;51.276;7.116;2022-12-29T04:09:31;9.40;99.90
20946;DHT22;10632;51.276;7.116;2022-12-29T04:11:59;9.40;99.90
20946;DHT22;10632;51.276;7.116;2022-12-29T04:14:26;9.40;99.90
20946;DHT22;10632;51.276;7.116;2022-12-29T04:16:52;9.40;99.90
20946;DHT22;10632;51.276;7.116;2022-12-29T04:19:19;9.40;99.90
20946;DHT22;10632;51.276;7.116;2022-12-29T04:21:46;9.50;99.90
20946;DHT22;10632;51.276;7.116;2022-12-29T04:24:13;9.50;99.90
20946;DHT22;10632;51.276;7.116;2022-12-29T04:26:42;9.50;99.90
20946;DHT22;10632;51.276;7.116;2022-12-29T04:29:08;9.50;99.90
20946;DHT22;10632;51.276;7.116;2022-12-29T04:31:35;9.60;99.90
20946;DHT22;10632;51.276;7.116;2022-12-29T04:34:02;9.60;99.90
20946;DHT22;10632;51.276;7.116;2022-12-29T04:36:29;9.60;99.90
20946;DHT22;10632;51.276;7.116;2022-12-29T04:38:56;9.70;99.90
20946;DHT22;10632;51.276;7.116;2022-12-29T04:41:26;9.70;99.90
20946;DHT22;10632;51.276;7.116;2022-12-29T04:43:55;9.80;99.90
20946;DHT22;10632;51.276;7.116;2022-12-29T04:46:22;9.80;99.90
20946;DHT22;10632;51.276;7.116;2022-12-29T04:48:49;9.80;99.90
20946;DHT22;10632;51.276;7.116;2022-12-29T04:51:16;9.90;99.90
20946;DHT22;10632;51.276;7.116;2022-12-29T04:53:42;9.90;99.90
20946;DHT22;10632;51.276;7.116;2022-12-29T04:56:09;9.80;99.90
20946;DHT22;10632;51.276;7.116;2022-12-29T04:58:36;9.90;99.90
20946;DHT22;10632;51.276;7.116;2022-12-29T05:01:04;10.00;99.90
20946;DHT22;10632;51.276;7.116;2022-12-29T05:03:31;10.00;99.90
20946;DHT22;10632;51.276;7.116;2022-12-29T05:05:58;10.10;99.90
20946;DHT22;10632;51.276;7.116;2022-12-29T05:08:25;10.10;99.90
20946;DHT22;10632;51.276;7.116;2022-12-29T05:10:52;10.10;99.90
20946;DHT22;10632;51.276;7.116;2022-12-29T05:13:22;10.10;99.90
20946;DHT22;10632;51.276;7.116;2022-12-29T05:15:50;10.10;99.90
20946;DHT22;10632;51.276;7.116;2022-12-29T05:18:19;10.10;99.90
20946;DHT22;10632;51.276;7.116;2022-12-29T05:20:46;10.10;99.90
20946;DHT22;10632;51.276;7.116;2022-12-29T05:23:14;10.20;99.90
20946;DHT22;10632;51.276;7.116;2022-12-29T05:25:42;10.20;99.90
20946;DHT22;10632;51.276;7.116;2022-12-29T05:28:10;10.10;99.90
20946;DHT22;10632;51.276;7.116;2022-12-29T05:30:38;10.20;99.90
20946;DHT22;10632;51.276;7.116;2022-12-29T05:33:04;10.20;99.90
20946;DHT22;10632;51.276;7.116;2022-12-29T05:35:33;10.30;99.90
20946;DHT22;10632;51.276;7.116;2022-12-29T05:38:00;10.30;99.90
20946;DHT22;10632;51.276;7.116;2022-12-29T05:40:27;10.30;99.90
20946;DHT22;10632;51.276;7.116;2022-12-29T05:42:55;10.40;99.90
20946;DHT22;10632;51.276;7.116;2022-12-29T05:45:22;10.40;99.90
20946;DHT22;10632;51.276;7.116;2022-12-29T05:47:49;10.40;99.90
20946;DHT22;10632;51.276;7.116;2022-12-29T05:50:21;10.40;99.90
20946;DHT22;10632;51.276;7.116;2022-12-29T05:52:49;10.50;99.90
20946;DHT22;10632;51.276;7.116;2022-12-29T05:55:16;10.50;99.90
20946;DHT22;10632;51.276;7.116;2022-12-29T05:57:44;10.40;99.90
20946;DHT22;10632;51.276;7.116;2022-12-29T06:00:12;10.50;99.90
20946;DHT22;10632;51.276;7.116;2022-12-29T06:02:39;10.40;99.90
20946;DHT22;10632;51.276;7.116;2022-12-29T06:05:09;10.40;99.90
20946;DHT22;10632;51.276;7.116;2022-12-29T06:07:36;10.40;99.90
20946;DHT22;10632;51.276;7.116;2022-12-29T06:10:06;10.40;99.90
20946;DHT22;10632;51.276;7.116;2022-12-29T06:12:34;10.40;99.90
20946;DHT22;10632;51.276;7.116;2022-12-29T06:15:01;10.40;99.90
20946;DHT22;10632;51.276;7.116;2022-12-29T06:17:28;10.50;99.90
20946;DHT22;10632;51.276;7.116;2022-12-29T06:19:55;10.50;99.90
20946;DHT22;10632;51.276;7.116;2022-12-29T06:22:22;10.60;99.90
20946;DHT22;10632;51.276;7.116;2022-12-29T06:24:49;10.60;99.90
20946;DHT22;10632;51.276;7.116;2022-12-29T06:27:17;10.50;99.90
20946;DHT22;10632;51.276;7.116;2022-12-29T06:29:45;10.50;99.90
20946;DHT22;10632;51.276;7.116;2022-12-29T06:32:12;10.50;99.90
20946;DHT22;10632;51.276;7.116;2022-12-29T06:34:39;10.40;99.90
20946;DHT22;10632;51.276;7.116;2022-12-29T06:37:06;10.40;99.90
20946;DHT22;10632;51.276;7.116;2022-12-29T06:39:34;10.40;99.90
20946;DHT22;10632;51.276;7.116;2022-12-29T06:42:04;10.40;99.90
20946;DHT22;10632;51.276;7.116;2022-12-29T06:44:32;10.30;99.90
20946;DHT22;10632;51.276;7.116;2022-12-29T06:46:59;10.30;99.90
20946;DHT22;10632;51.276;7.116;2022-12-29T06:49:26;10.30;99.90
20946;DHT22;10632;51.276;7.116;2022-12-29T06:51:53;10.30;99.90
20946;DHT22;10632;51.276;7.116;2022-12-29T06:54:23;10.30;99.90
20946;DHT22;10632;51.276;7.116;2022-12-29T06:56:50;10.30;99.90
20946;DHT22;10632;51.276;7.116;2022-12-29T06:59:17;10.30;99.90
20946;DHT22;10632;51.276;7.116;2022-12-29T07:01:45;10.30;99.90
20946;DHT22;10632;51.276;7.116;2022-12-29T07:04:12;10.30;99.90
20946;DHT22;10632;51.276;7.116;2022-12-29T07:06:39;10.30;99.90
20946;DHT22;10632;51.276;7.116;2022-12-29T07:09:08;10.20;99.90
20946;DHT22;10632;51.276;7.116;2022-12-29T07:11:37;10.10;99.90
20946;DHT22;10632;51.276;7.116;2022-12-29T07:14:04;10.10;99.90
20946;DHT22;10632;51.276;7.116;2022-12-29T07:16:31;10.00;99.90
20946;DHT22;10632;51.276;7.116;2022-12-29T07:19:01;10.00;99.90
20946;DHT22;10632;51.276;7.116;2022-12-29T07:21:29;10.00;99.90
20946;DHT22;10632;51.276;7.116;2022-12-29T07:23:56;10.00;99.90
20946;DHT22;10632;51.276;7.116;2022-12-29T07:26:23;10.00;99.90
20946;DHT22;10632;51.276;7.116;2022-12-29T07:28:50;10.00;99.90
20946;DHT22;10632;51.276;7.116;2022-12-29T07:31:22;10.00;99.90
20946;DHT22;10632;51.276;7.116;2022-12-29T07:33:50;10.00;99.90
20946;DHT22;10632;51.276;7.116;2022-12-29T07:36:18;10.00;99.90
20946;DHT22;10632;51.276;7.116;2022-12-29T07:38:45;9.90;99.90
20946;DHT22;10632;51.276;7.116;2022-12-29T07:41:12;9.90;99.90
20946;DHT22;10632;51.276;7.116;2022-12-29T07:43:40;9.90;99.90
20946;DHT22;10632;51.276;7.116;2022-12-29T07:46:11;9.90;99.90
20946;DHT22;10632;51.276;7.116;2022-12-29T07:48:38;9.90;99.90
20946;DHT22;10632;51.276;7.116;2022-12-29T07:51:05;9.80;99.90
20946;DHT22;10632;51.276;7.116;2022-12-29T07:53:34;9.90;99.90
20946;DHT22;10632;51.276;7.116;2022-12-29T07:56:01;9.90;99.90
20946;DHT22;10632;51.276;7.116;2022-12-29T07:58:29;10.00;99.90
20946;DHT22;10632;51.276;7.116;2022-12-29T08:00:58;10.00;99.90
20946;DHT22;10632;51.276;7.116;2022-12-29T08:03:25;10.00;99.90
20946;DHT22;10632;51.276;7.116;2022-12-29T08:05:53;10.00;99.90
20946;DHT22;10632;51.276;7.116;2022-12-29T08:08:24;10.00;99.90
20946;DHT22;10632;51.276;7.116;2022-12-29T08:10:52;10.00;99.90
20946;DHT22;10632;51.276;7.116;2022-12-29T08:13:19;10.00;99.90
20946;DHT22;10632;51.276;7.116;2022-12-29T08:15:46;10.00;99.90
20946;DHT22;10632;51.276;7.116;2022-12-29T08:18:13;9.90;99.90
20946;DHT22;10632;51.276;7.116;2022-12-29T08:20:42;9.90;99.90
20946;DHT22;10632;51.276;7.116;2022-12-29T08:23:09;9.90;99.90
20946;DHT22;10632;51.276;7.116;2022-12-29T08:25:38;10.00;99.90
20946;DHT22;10632;51.276;7.116;2022-12-29T08:28:07;10.00;99.90
20946;DHT22;10632;51.276;7.116;2022-12-29T08:30:35;10.00;99.90
20946;DHT22;10632;51.276;7.116;2022-12-29T08:35:30;10.00;99.90
20946;DHT22;10632;51.276;7.116;2022-12-29T08:37:57;9.90;99.90
20946;DHT22;10632;51.276;7.116;2022-12-29T08:40:24;9.90;99.90
20946;DHT22;10632;51.276;7.116;2022-12-29T08:42:51;9.90;99.90
20946;DHT22;10632;51.276;7.116;2022-12-29T08:45:19;9.90;99.90
20946;DHT22;10632;51.276;7.116;2022-12-29T08:47:46;9.90;99.90
20946;DHT22;10632;51.276;7.116;2022-12-29T08:50:13;9.90;99.90
20946;DHT22;10632;51.276;7.116;2022-12-29T08:52:40;9.90;99.90
20946;DHT22;10632;51.276;7.116;2022-12-29T08:55:08;9.90;99.90
20946;DHT22;10632;51.276;7.116;2022-12-29T08:57:35;9.90;99.90
20946;DHT22;10632;51.276;7.116;2022-12-29T09:00:03;9.90;99.90
20946;DHT22;10632;51.276;7.116;2022-12-29T09:02:31;9.80;99.90
20946;DHT22;10632;51.276;7.116;2022-12-29T09:04:58;9.60;99.90
20946;DHT22;10632;51.276;7.116;2022-12-29T09:07:25;9.30;99.90
20946;DHT22;10632;51.276;7.116;2022-12-29T09:09:52;9.20;99.90
20946;DHT22;10632;51.276;7.116;2022-12-29T09:12:19;9.00;99.90
20946;DHT22;10632;51.276;7.116;2022-12-29T09:14:46;8.90;99.90
20946;DHT22;10632;51.276;7.116;2022-12-29T09:17:13;8.80;99.90
20946;DHT22;10632;51.276;7.116;2022-12-29T09:19:59;8.80;99.90
20946;DHT22;10632;51.276;7.116;2022-12-29T09:22:26;8.70;99.90
20946;DHT22;10632;51.276;7.116;2022-12-29T09:24:53;8.70;99.90
20946;DHT22;10632;51.276;7.116;2022-12-29T09:27:20;8.70;99.90
20946;DHT22;10632;51.276;7.116;2022-12-29T09:29:46;8.80;99.90
20946;DHT22;10632;51.276;7.116;2022-12-29T09:32:13;8.80;99.90
20946;DHT22;10632;51.276;7.116;2022-12-29T09:34:40;8.80;99.90
20946;DHT22;10632;51.276;7.116;2022-12-29T09:37:09;8.90;99.90
20946;DHT22;10632;51.276;7.116;2022-12-29T09:39:35;8.90;99.90
20946;DHT22;10632;51.276;7.116;2022-12-29T09:42:06;9.00;99.90
20946;DHT22;10632;51.276;7.116;2022-12-29T09:44:48;9.00;99.90
20946;DHT22;10632;51.276;7.116;2022-12-29T09:47:17;9.00;99.90
20946;DHT22;10632;51.276;7.116;2022-12-29T09:49:47;9.10;99.90
20946;DHT22;10632;51.276;7.116;2022-12-29T09:52:21;9.10;99.90
20946;DHT22;10632;51.276;7.116;2022-12-29T09:54:53;9.10;99.90
20946;DHT22;10632;51.276;7.116;2022-12-29T09:57:24;9.10;99.90
20946;DHT22;10632;51.276;7.116;2022-12-29T10:00:00;9.20;99.90
20946;DHT22;10632;51.276;7.116;2022-12-29T10:02:36;9.20;99.90
20946;DHT22;10632;51.276;7.116;2022-12-29T10:05:20;9.20;99.90
20946;DHT22;10632;51.276;7.116;2022-12-29T10:07:57;9.30;99.90
20946;DHT22;10632;51.276;7.116;2022-12-29T10:10:34;9.20;99.90
20946;DHT22;10632;51.276;7.116;2022-12-29T10:13:20;9.30;99.90
20946;DHT22;10632;51.276;7.116;2022-12-29T10:15:57;9.30;99.90
20946;DHT22;10632;51.276;7.116;2022-12-29T10:18:39;9.30;99.90
20946;DHT22;10632;51.276;7.116;2022-12-29T10:21:19;9.40;99.90
20946;DHT22;10632;51.276;7.116;2022-12-29T10:23:51;9.50;99.90
20946;DHT22;10632;51.276;7.116;2022-12-29T10:26:21;9.50;99.90
20946;DHT22;10632;51.276;7.116;2022-12-29T10:28:52;9.50;99.90
20946;DHT22;10632;51.276;7.116;2022-12-29T10:31:28;9.50;99.90
20946;DHT22;10632;51.276;7.116;2022-12-29T10:34:01;9.50;99.90
20946;DHT22;10632;51.276;7.116;2022-12-29T10:36:34;9.50;99.90
20946;DHT22;10632;51.276;7.116;2022-12-29T10:39:18;9.50;99.90
20946;DHT22;10632;51.276;7.116;2022-12-29T10:41:49;9.50;99.90
20946;DHT22;10632;51.276;7.116;2022-12-29T10:44:18;9.50;99.90
20946;DHT22;10632;51.276;7.116;2022-12-29T10:46:54;9.50;99.90
20946;DHT22;10632;51.276;7.116;2022-12-29T10:49:28;9.50;99.90
20946;DHT22;10632;51.276;7.116;2022-12-29T10:51:58;9.50;99.90
20946;DHT22;10632;51.276;7.116;2022-12-29T10:54:32;9.50;99.90
20946;DHT22;10632;51.276;7.116;2022-12-29T10:57:03;9.50;99.90
20946;DHT22;10632;51.276;7.116;2022-12-29T10:59:31;9.60;99.90
20946;DHT22;10632;51.276;7.116;2022-12-29T11:02:30;9.60;99.90
20946;DHT22;10632;51.276;7.116;2022-12-29T11:05:04;9.60;99.90
20946;DHT22;10632;51.276;7.116;2022-12-29T11:07:34;9.60;99.90
20946;DHT22;10632;51.276;7.116;2022-12-29T11:10:21;9.70;99.90
20946;DHT22;10632;51.276;7.116;2022-12-29T11:12:57;9.70;99.90
20946;DHT22;10632;51.276;7.116;2022-12-29T11:15:24;9.60;99.90
20946;DHT22;10632;51.276;7.116;2022-12-29T11:17:53;9.60;99.90
20946;DHT22;10632;51.276;7.116;2022-12-29T11:20:29;9.60;99.90
20946;DHT22;10632;51.276;7.116;2022-12-29T11:22:57;9.60;99.90
20946;DHT22;10632;51.276;7.116;2022-12-29T11:25:26;9.60;99.90
20946;DHT22;10632;51.276;7.116;2022-12-29T11:28:00;9.60;99.90
20946;DHT22;10632;51.276;7.116;2022-12-29T11:30:29;9.60;99.90
20946;DHT22;10632;51.276;7.116;2022-12-29T11:32:57;9.70;99.90
20946;DHT22;10632;51.276;7.116;2022-12-29T11:35:38;9.70;99.90
20946;DHT22;10632;51.276;7.116;2022-12-29T11:38:18;9.70;99.90
20946;DHT22;10632;51.276;7.116;2022-12-29T11:40:48;9.70;99.90
20946;DHT22;10632;51.276;7.116;2022-12-29T11:43:23;9.70;99.90
20946;DHT22;10632;51.276;7.116;2022-12-29T11:45:52;9.80;99.90
20946;DHT22;10632;51.276;7.116;2022-12-29T11:48:22;9.80;99.90
20946;DHT22;10632;51.276;7.116;2022-12-29T11:50:51;9.80;99.90
20946;DHT22;10632;51.276;7.116;2022-12-29T11:53:21;9.80;99.90
20946;DHT22;10632;51.276;7.116;2022-12-29T11:55:53;9.80;99.90
20946;DHT22;10632;51.276;7.116;2022-12-29T11:58:27;9.80;99.90
20946;DHT22;10632;51.276;7.116;2022-12-29T12:00:56;9.80;99.90
20946;DHT22;10632;51.276;7.116;2022-12-29T12:03:26;9.70;99.90
20946;DHT22;10632;51.276;7.116;2022-12-29T12:05:56;9.70;99.90
20946;DHT22;10632;51.276;7.116;2022-12-29T12:08:33;9.70;99.90
20946;DHT22;10632;51.276;7.116;2022-12-29T12:13:40;9.60;99.90
20946;DHT22;10632;51.276;7.116;2022-12-29T12:16:12;9.70;99.90
20946;DHT22;10632;51.276;7.116;2022-12-29T12:18:44;9.70;99.90
20946;DHT22;10632;51.276;7.116;2022-12-29T12:21:18;9.70;99.90
20946;DHT22;10632;51.276;7.116;2022-12-29T12:23:59;9.70;99.90
20946;DHT22;10632;51.276;7.116;2022-12-29T12:26:34;9.70;99.90
20946;DHT22;10632;51.276;7.116;2022-12-29T12:29:12;9.60;99.90
20946;DHT22;10632;51.276;7.116;2022-12-29T12:31:45;9.60;99.90
20946;DHT22;10632;51.276;7.116;2022-12-29T12:34:17;9.60;99.90
20946;DHT22;10632;51.276;7.116;2022-12-29T12:37:05;9.60;99.90
20946;DHT22;10632;51.276;7.116;2022-12-29T12:39:44;9.50;99.90
20946;DHT22;10632;51.276;7.116;2022-12-29T12:42:25;9.50;99.90
20946;DHT22;10632;51.276;7.116;2022-12-29T12:45:25;9.50;99.90
20946;DHT22;10632;51.276;7.116;2022-12-29T12:48:05;9.50;99.90
20946;DHT22;10632;51.276;7.116;2022-12-29T12:50:47;9.50;99.90
20946;DHT22;10632;51.276;7.116;2022-12-29T12:59:29;9.50;99.90
20946;DHT22;10632;51.276;7.116;2022-12-29T13:02:08;9.50;99.90
20946;DHT22;10632;51.276;7.116;2022-12-29T13:04:57;9.50;99.90
20946;DHT22;10632;51.276;7.116;2022-12-29T13:07:37;9.50;99.90
20946;DHT22;10632;51.276;7.116;2022-12-29T13:10:36;9.50;99.90
20946;DHT22;10632;51.276;7.116;2022-12-29T13:13:29;9.40;99.90
20946;DHT22;10632;51.276;7.116;2022-12-29T13:16:05;9.50;99.90
20946;DHT22;10632;51.276;7.116;2022-12-29T13:18:41;9.50;99.90
20946;DHT22;10632;51.276;7.116;2022-12-29T13:21:16;9.50;99.90
20946;DHT22;10632;51.276;7.116;2022-12-29T13:23:53;9.50;99.90
20946;DHT22;10632;51.276;7.116;2022-12-29T13:26:25;9.50;99.90
20946;DHT22;10632;51.276;7.116;2022-12-29T13:28:58;9.50;99.90
20946;DHT22;10632;51.276;7.116;2022-12-29T13:31:32;9.50;99.90
20946;DHT22;10632;51.276;7.116;2022-12-29T13:34:13;9.50;99.90
20946;DHT22;10632;51.276;7.116;2022-12-29T13:36:43;9.50;99.90
20946;DHT22;10632;51.276;7.116;2022-12-29T13:39:15;9.50;99.90
20946;DHT22;10632;51.276;7.116;2022-12-29T13:41:45;9.40;99.90
20946;DHT22;10632;51.276;7.116;2022-12-29T13:44:17;9.40;99.90
20946;DHT22;10632;51.276;7.116;2022-12-29T13:46:46;9.40;99.90
20946;DHT22;10632;51.276;7.116;2022-12-29T13:49:17;9.40;99.90
20946;DHT22;10632;51.276;7.116;2022-12-29T13:51:48;9.40;99.90
20946;DHT22;10632;51.276;7.116;2022-12-29T13:54:27;9.40;99.90
20946;DHT22;10632;51.276;7.116;2022-12-29T13:57:06;9.40;99.90
20946;DHT22;10632;51.276;7.116;2022-12-29T13:59:40;9.40;99.90
20946;DHT22;10632;51.276;7.116;2022-12-29T14:02:26;9.40;99.90
20946;DHT22;10632;51.276;7.116;2022-12-29T14:05:01;9.40;99.90
20946;DHT22;10632;51.276;7.116;2022-12-29T14:07:28;9.40;99.90
20946;DHT22;10632;51.276;7.116;2022-12-29T14:09:56;9.40;99.90
20946;DHT22;10632;51.276;7.116;2022-12-29T14:12:32;9.40;99.90
20946;DHT22;10632;51.276;7.116;2022-12-29T14:15:05;9.40;99.90
20946;DHT22;10632;51.276;7.116;2022-12-29T14:17:33;9.40;99.90
20946;DHT22;10632;51.276;7.116;2022-12-29T14:20:02;9.50;99.90
20946;DHT22;10632;51.276;7.116;2022-12-29T14:22:32;9.50;99.90
20946;DHT22;10632;51.276;7.116;2022-12-29T14:24:59;9.50;99.90
20946;DHT22;10632;51.276;7.116;2022-12-29T14:27:51;9.50;99.90
20946;DHT22;10632;51.276;7.116;2022-12-29T14:30:47;9.50;99.90
20946;DHT22;10632;51.276;7.116;2022-12-29T14:33:15;9.40;99.90
20946;DHT22;10632;51.276;7.116;2022-12-29T14:35:46;9.50;99.90
20946;DHT22;10632;51.276;7.116;2022-12-29T14:38:29;9.50;99.90
20946;DHT22;10632;51.276;7.116;2022-12-29T14:41:24;9.40;99.90
20946;DHT22;10632;51.276;7.116;2022-12-29T14:44:01;9.40;99.90
20946;DHT22;10632;51.276;7.116;2022-12-29T14:46:54;9.40;99.90
20946;DHT22;10632;51.276;7.116;2022-12-29T14:49:23;9.40;99.90
20946;DHT22;10632;51.276;7.116;2022-12-29T14:51:54;9.40;99.90
20946;DHT22;10632;51.276;7.116;2022-12-29T14:54:50;9.30;99.90
20946;DHT22;10632;51.276;7.116;2022-12-29T14:57:30;9.30;99.90
20946;DHT22;10632;51.276;7.116;2022-12-29T15:00:06;9.30;99.90
20946;DHT22;10632;51.276;7.116;2022-12-29T15:02:39;9.30;99.90
20946;DHT22;10632;51.276;7.116;2022-12-29T15:05:24;9.30;99.90
20946;DHT22;10632;51.276;7.116;2022-12-29T15:07:53;9.20;99.90
20946;DHT22;10632;51.276;7.116;2022-12-29T15:10:21;9.20;99.90
20946;DHT22;10632;51.276;7.116;2022-12-29T15:12:52;9.20;99.90
20946;DHT22;10632;51.276;7.116;2022-12-29T15:15:22;9.20;99.90
20946;DHT22;10632;51.276;7.116;2022-12-29T15:17:49;9.20;99.90
20946;DHT22;10632;51.276;7.116;2022-12-29T15:20:31;9.20;99.90
20946;DHT22;10632;51.276;7.116;2022-12-29T15:23:02;9.10;99.90
20946;DHT22;10632;51.276;7.116;2022-12-29T15:25:30;9.10;99.90
20946;DHT22;10632;51.276;7.116;2022-12-29T15:28:00;9.10;99.90
20946;DHT22;10632;51.276;7.116;2022-12-29T15:30:28;9.10;99.90
20946;DHT22;10632;51.276;7.116;2022-12-29T15:32:55;9.20;99.90
20946;DHT22;10632;51.276;7.116;2022-12-29T15:35:31;9.10;99.90
20946;DHT22;10632;51.276;7.116;2022-12-29T15:38:00;9.10;99.90
20946;DHT22;10632;51.276;7.116;2022-12-29T15:40:30;9.10;99.90
20946;DHT22;10632;51.276;7.116;2022-12-29T15:43:22;9.10;99.90
20946;DHT22;10632;51.276;7.116;2022-12-29T15:45:51;9.10;99.90
20946;DHT22;10632;51.276;7.116;2022-12-29T15:48:21;9.00;99.90
20946;DHT22;10632;51.276;7.116;2022-12-29T15:50:51;9.00;99.90
20946;DHT22;10632;51.276;7.116;2022-12-29T15:53:23;9.00;99.90
20946;DHT22;10632;51.276;7.116;2022-12-29T15:55:55;9.00;99.90
20946;DHT22;10632;51.276;7.116;2022-12-29T15:58:24;9.00;99.90
20946;DHT22;10632;51.276;7.116;2022-12-29T16:00:53;9.00;99.90
20946;DHT22;10632;51.276;7.116;2022-12-29T16:03:22;8.90;99.90
20946;DHT22;10632;51.276;7.116;2022-12-29T16:05:53;9.00;99.90
20946;DHT22;10632;51.276;7.116;2022-12-29T16:08:33;8.90;99.90
20946;DHT22;10632;51.276;7.116;2022-12-29T16:11:07;8.90;99.90
20946;DHT22;10632;51.276;7.116;2022-12-29T16:13:43;9.00;99.90
20946;DHT22;10632;51.276;7.116;2022-12-29T16:16:14;8.90;99.90
20946;DHT22;10632;51.276;7.116;2022-12-29T16:18:44;8.90;99.90
20946;DHT22;10632;51.276;7.116;2022-12-29T16:21:18;8.90;99.90
20946;DHT22;10632;51.276;7.116;2022-12-29T16:23:50;8.90;99.90
20946;DHT22;10632;51.276;7.116;2022-12-29T16:26:18;8.90;99.90
20946;DHT22;10632;51.276;7.116;2022-12-29T16:28:47;8.90;99.90
20946;DHT22;10632;51.276;7.116;2022-12-29T16:31:20;8.90;99.90